Time;durP1;ratioP1;P1;durP2;ratioP2;P2;SDS_P1;SDS_P2;PMS_P1;PMS_P2;Temp;Humidity;BMP_temperature;BMP_pressure;BME280_temperature;BME280_humidity;BME280_pressure;Samples;Min_cycle;Max_cycle;Signal;HPM_P1;HPM_P2
2024/03/20 00:01:14;;;;;;;9.80;6.25;;;;;;;9.15;100.00;101871.59;5130305;27;20031;-39
2024/03/20 00:03:39;;;;;;;9.68;6.13;;;;;;;9.13;100.00;101889.03;5130358;27;20106;-38
2024/03/20 00:06:04;;;;;;;8.87;5.73;;;;;;;9.09;100.00;101871.56;5122219;27;20110;-40
2024/03/20 00:08:30;;;;;;;8.93;6.10;;;;;;;9.03;100.00;101876.72;5117027;28;20254;-40
2024/03/20 00:10:55;;;;;;;11.47;6.47;;;;;;;9.05;100.00;101879.22;5117080;28;20020;-40
2024/03/20 00:13:22;;;;;;;8.82;5.90;;;;;;;9.13;100.00;101887.19;5116634;28;20456;-39
2024/03/20 00:15:48;;;;;;;10.27;5.85;;;;;;;9.12;100.00;101887.34;5116333;28;20106;-39
2024/03/20 00:18:14;;;;;;;10.18;6.43;;;;;;;9.05;100.00;101883.78;5116883;28;20103;-39
2024/03/20 00:20:40;;;;;;;7.97;6.43;;;;;;;9.08;100.00;101881.53;5117117;28;20076;-39
2024/03/20 00:23:07;;;;;;;8.45;6.03;;;;;;;9.12;100.00;101884.66;5116494;28;20098;-39
2024/03/20 00:25:33;;;;;;;8.90;5.85;;;;;;;9.10;100.00;101878.63;5116731;28;20376;-40
2024/03/20 00:27:58;;;;;;;;;;;;;;;9.27;100.00;101880.00;5116810;28;20020;-40
2024/03/20 00:30:23;;;;;;;7.73;5.50;;;;;;;9.11;100.00;101885.69;5116986;27;19914;-40
2024/03/20 00:32:49;;;;;;;8.90;6.27;;;;;;;8.95;100.00;101866.06;5116098;28;20023;-40
2024/03/20 00:35:14;;;;;;;8.10;5.67;;;;;;;9.05;100.00;101875.69;5116207;28;20280;-39
2024/03/20 00:37:39;;;;;;;10.03;7.03;;;;;;;9.00;100.00;101881.66;5116203;28;20269;-39
2024/03/20 00:40:05;;;;;;;8.00;5.93;;;;;;;8.94;100.00;101877.06;5116683;28;20265;-40
2024/03/20 00:42:31;;;;;;;7.38;6.25;;;;;;;8.96;100.00;101870.44;5116115;28;20032;-45
2024/03/20 00:44:56;;;;;;;8.23;6.70;;;;;;;8.98;100.00;101871.09;5116430;27;20042;-40
2024/03/20 00:47:22;;;;;;;7.53;6.68;;;;;;;9.04;100.00;101880.25;5116034;28;20027;-40
2024/03/20 00:49:47;;;;;;;6.93;6.23;;;;;;;9.00;100.00;101881.66;5116701;28;20032;-39
2024/03/20 00:52:12;;;;;;;9.52;6.70;;;;;;;9.01;100.00;101886.84;5115918;28;20608;-40
2024/03/20 00:54:40;;;;;;;6.80;5.60;;;;;;;9.05;100.00;101875.69;5115731;28;20047;-39
2024/03/20 00:57:06;;;;;;;8.10;6.03;;;;;;;8.95;100.00;101876.84;5116370;28;20023;-40
2024/03/20 00:59:31;;;;;;;8.67;6.77;;;;;;;8.94;100.00;101869.81;5115883;27;20453;-40
2024/03/20 01:01:56;;;;;;;8.53;6.03;;;;;;;8.98;100.00;101881.88;5116325;28;20270;-39
2024/03/20 01:04:22;;;;;;;11.00;6.47;;;;;;;8.92;100.00;101879.09;5116244;27;20034;-40
2024/03/20 01:06:47;;;;;;;10.20;6.43;;;;;;;8.92;100.00;101871.84;5115660;28;20046;-39
2024/03/20 01:09:12;;;;;;;7.80;6.57;;;;;;;8.84;100.00;101869.31;5115603;27;20265;-40
2024/03/20 01:11:38;;;;;;;8.37;6.20;;;;;;;8.87;100.00;101878.84;5115599;28;20031;-40
2024/03/20 01:14:03;;;;;;;9.20;6.32;;;;;;;8.81;100.00;101874.25;5115456;28;20027;-39
2024/03/20 01:16:28;;;;;;;8.70;6.87;;;;;;;8.77;100.00;101877.31;5115201;28;20032;-40
2024/03/20 01:18:55;;;;;;;7.33;6.53;;;;;;;8.80;100.00;101875.28;5115248;28;20027;-40
2024/03/20 01:21:20;;;;;;;10.45;6.85;;;;;;;8.83;100.00;101878.41;5115883;28;20424;-39
2024/03/20 01:23:45;;;;;;;10.98;6.75;;;;;;;8.85;100.00;101872.84;5115623;28;20039;-39
2024/03/20 01:26:11;;;;;;;6.50;5.67;;;;;;;8.84;100.00;101872.00;5115881;28;20062;-39
2024/03/20 01:28:36;;;;;;;8.67;6.40;;;;;;;8.81;100.00;101877.78;5116157;28;20043;-39
2024/03/20 01:31:01;;;;;;;10.37;6.83;;;;;;;8.67;100.00;101867.88;5114955;28;20024;-40
2024/03/20 01:33:27;;;;;;;10.30;7.67;;;;;;;8.71;100.00;101879.97;5115963;28;20046;-40
2024/03/20 01:35:52;;;;;;;8.97;7.17;;;;;;;8.54;100.00;101862.38;5115594;28;20273;-39
2024/03/20 01:38:18;;;;;;;9.57;6.73;;;;;;;8.70;100.00;101871.03;5115597;28;20066;-38
2024/03/20 01:40:43;;;;;;;13.07;7.05;;;;;;;8.73;100.00;101873.34;5114928;28;20262;-39
2024/03/20 01:43:20;;;;;;;10.47;7.43;;;;;;;8.69;100.00;101872.06;5115761;28;20028;-39
2024/03/20 01:45:47;;;;;;;8.80;6.55;;;;;;;8.63;100.00;101855.81;5115473;28;20329;-38
2024/03/20 01:48:12;;;;;;;9.70;6.63;;;;;;;8.60;100.00;101865.16;5114792;28;20043;-38
2024/03/20 01:50:38;;;;;;;8.60;6.50;;;;;;;8.52;100.00;101868.78;5115061;28;20467;-38
2024/03/20 01:53:04;;;;;;;9.65;6.72;;;;;;;8.54;100.00;101867.75;5114701;28;20059;-38
2024/03/20 01:55:30;;;;;;;10.20;7.47;;;;;;;8.55;100.00;101864.06;5115587;28;20044;-38
2024/03/20 01:57:55;;;;;;;10.00;6.82;;;;;;;8.51;100.00;101869.81;5114688;27;20031;-40
2024/03/20 02:00:24;;;;;;;10.40;7.38;;;;;;;8.65;100.00;101865.41;5114674;28;20372;-40
2024/03/20 02:02:50;;;;;;;10.10;6.97;;;;;;;8.67;100.00;101859.81;5114298;28;20020;-40
2024/03/20 02:05:16;;;;;;;11.75;7.55;;;;;;;8.60;100.00;101864.31;5114309;28;20027;-38
2024/03/20 02:07:42;;;;;;;;;;;;;;;8.80;100.00;101857.22;5114914;28;20027;-38
2024/03/20 02:10:08;;;;;;;9.40;6.80;;;;;;;8.76;100.00;101854.06;5114458;28;19908;-38
2024/03/20 02:12:33;;;;;;;9.02;6.65;;;;;;;8.76;100.00;101853.25;5114402;28;20020;-39
2024/03/20 02:15:08;;;;;;;7.13;5.75;;;;;;;8.80;100.00;101851.00;5114641;28;20068;-39
2024/03/20 02:17:34;;;;;;;8.73;6.10;;;;;;;8.76;100.00;101845.16;5114364;28;20045;-39
2024/03/20 02:19:59;;;;;;;8.73;5.90;;;;;;;8.76;100.00;101856.78;5114591;28;20099;-39
2024/03/20 02:22:24;;;;;;;6.70;5.27;;;;;;;8.69;100.00;101837.03;5114229;28;20040;-39
2024/03/20 02:24:50;;;;;;;9.10;6.30;;;;;;;8.62;100.00;101848.75;5114250;28;20028;-39
2024/03/20 02:27:15;;;;;;;9.97;5.47;;;;;;;8.65;100.00;101851.09;5114126;28;20057;-39
2024/03/20 02:29:40;;;;;;;9.27;6.03;;;;;;;8.67;100.00;101857.94;5114305;28;20035;-39
2024/03/20 02:32:06;;;;;;;10.38;5.88;;;;;;;8.64;100.00;101852.13;5114359;28;20077;-39
2024/03/20 02:34:31;;;;;;;9.13;6.00;;;;;;;8.55;100.00;101837.94;5114839;28;20042;-39
2024/03/20 02:36:56;;;;;;;9.63;6.20;;;;;;;8.56;100.00;101844.97;5114261;28;20284;-39
2024/03/20 02:39:22;;;;;;;9.63;6.13;;;;;;;8.59;100.00;101844.59;5114884;28;20349;-39
2024/03/20 02:41:47;;;;;;;8.47;5.53;;;;;;;8.63;100.00;101850.44;5114267;28;20072;-39
2024/03/20 02:44:14;;;;;;;7.17;6.33;;;;;;;8.58;100.00;101847.47;5114513;28;20059;-39
2024/03/20 02:46:39;;;;;;;7.75;5.80;;;;;;;8.57;100.00;101848.50;5113589;28;20276;-38
2024/03/20 02:49:05;;;;;;;7.57;5.63;;;;;;;8.51;100.00;101848.25;5113660;28;20103;-38
2024/03/20 02:51:30;;;;;;;9.95;6.50;;;;;;;8.42;100.00;101833.22;5113589;28;20055;-38
2024/03/20 02:53:56;;;;;;;8.60;6.50;;;;;;;8.45;100.00;101849.03;5113879;28;20082;-38
2024/03/20 02:56:21;;;;;;;8.67;5.60;;;;;;;8.37;100.00;101827.59;5113789;28;20110;-39
2024/03/20 02:58:46;;;;;;;9.97;5.93;;;;;;;8.42;100.00;101843.19;5114437;28;20781;-40
2024/03/20 03:01:12;;;;;;;7.90;5.73;;;;;;;8.43;100.00;101842.16;5114308;28;20027;-39
2024/03/20 03:03:37;;;;;;;9.57;6.10;;;;;;;8.40;100.00;101846.09;5113489;28;20027;-39
2024/03/20 03:06:02;;;;;;;7.27;5.70;;;;;;;8.42;100.00;101844.00;5113501;28;20099;-39
2024/03/20 03:08:28;;;;;;;8.77;6.10;;;;;;;8.31;100.00;101846.38;5114331;28;20059;-39
2024/03/20 03:10:54;;;;;;;7.93;6.17;;;;;;;8.31;100.00;101844.50;5113952;28;20375;-39
2024/03/20 03:13:20;;;;;;;9.27;6.20;;;;;;;8.28;100.00;101847.56;5114182;28;20023;-39
2024/03/20 03:15:45;;;;;;;9.23;6.78;;;;;;;8.27;100.00;101848.59;5113680;28;20020;-39
2024/03/20 03:18:11;;;;;;;10.70;6.63;;;;;;;8.29;100.00;101857.31;5114259;28;20032;-39
2024/03/20 03:20:36;;;;;;;7.60;6.80;;;;;;;8.20;100.00;101845.84;5113719;28;20336;-39
2024/03/20 03:23:02;;;;;;;10.30;6.67;;;;;;;8.31;100.00;101857.97;5113605;28;20023;-39
2024/03/20 03:25:27;;;;;;;7.38;5.60;;;;;;;8.30;100.00;101850.94;5113595;28;20085;-39
2024/03/20 03:27:52;;;;;;;8.13;6.00;;;;;;;8.36;100.00;101850.19;5113457;28;20028;-39
2024/03/20 03:30:18;;;;;;;10.00;5.90;;;;;;;8.29;100.00;101848.41;5113622;28;20024;-38
2024/03/20 03:32:43;;;;;;;11.60;6.93;;;;;;;8.34;100.00;101854.88;5113537;28;20391;-39
2024/03/20 03:35:09;;;;;;;7.83;5.47;;;;;;;8.37;100.00;101846.44;5113752;28;20031;-39
2024/03/20 03:37:35;;;;;;;10.02;6.60;;;;;;;8.32;100.00;101845.34;5113813;28;20062;-39
2024/03/20 03:40:00;;;;;;;9.60;7.38;;;;;;;8.34;100.00;101852.19;5114052;28;20511;-39
2024/03/20 03:42:29;;;;;;;8.70;7.43;;;;;;;8.24;100.00;101849.81;5117166;28;20031;-39
2024/03/20 03:44:54;;;;;;;9.73;7.28;;;;;;;8.21;100.00;101842.13;5117816;28;20479;-39
2024/03/20 03:47:20;;;;;;;9.23;7.57;;;;;;;8.29;100.00;101851.09;5117275;28;20103;-39
2024/03/20 03:49:47;;;;;;;10.70;7.80;;;;;;;8.24;100.00;101857.06;5117464;27;20425;-39
2024/03/20 03:52:13;;;;;;;11.23;7.55;;;;;;;8.26;100.00;101855.84;5117100;28;20032;-39
2024/03/20 03:54:39;;;;;;;9.07;7.25;;;;;;;8.22;100.00;101848.34;5117741;27;20043;-38
2024/03/20 03:57:04;;;;;;;8.93;7.35;;;;;;;8.13;100.00;101849.47;5117003;28;20110;-39
2024/03/20 03:59:29;;;;;;;8.47;6.73;;;;;;;8.15;100.00;101848.28;5117122;28;20016;-40
2024/03/20 04:01:55;;;;;;;10.27;7.00;;;;;;;8.14;100.00;101845.75;5116974;28;20031;-39
2024/03/20 04:04:20;;;;;;;12.43;7.80;;;;;;;8.11;100.00;101848.84;5116924;28;20357;-38
2024/03/20 04:06:45;;;;;;;10.60;7.10;;;;;;;8.03;100.00;101838.19;5116939;28;20375;-39
2024/03/20 04:09:11;;;;;;;10.97;6.13;;;;;;;8.15;100.00;101853.66;5116890;28;20063;-39
2024/03/20 04:11:37;;;;;;;10.00;7.20;;;;;;;8.03;100.00;101843.56;5117572;27;20035;-39
2024/03/20 04:14:07;;;;;;;8.10;7.05;;;;;;;7.98;100.00;101836.88;5116862;28;20372;-39
2024/03/20 04:16:34;;;;;;;8.35;7.13;;;;;;;8.02;100.00;101852.69;5117500;28;20024;-39
2024/03/20 04:18:59;;;;;;;9.65;7.10;;;;;;;8.03;100.00;101857.03;5116641;28;20051;-39
2024/03/20 04:21:25;;;;;;;8.25;7.20;;;;;;;7.89;100.00;101840.72;5116609;28;20062;-39
2024/03/20 04:23:50;;;;;;;11.03;7.23;;;;;;;7.95;100.00;101852.56;5116266;28;20380;-39
2024/03/20 04:26:16;;;;;;;9.05;6.63;;;;;;;7.93;100.00;101850.09;5116738;27;20027;-39
2024/03/20 04:28:41;;;;;;;7.63;6.30;;;;;;;7.89;100.00;101853.34;5116212;28;20121;-39
2024/03/20 04:31:09;;;;;;;7.83;6.10;;;;;;;7.94;100.00;101851.75;5116383;28;20020;-38
2024/03/20 04:33:34;;;;;;;8.23;6.50;;;;;;;7.80;100.00;101831.06;5116837;28;20062;-38
2024/03/20 04:36:03;;;;;;;10.03;6.50;;;;;;;7.86;100.00;101851.88;5115792;28;20055;-38
2024/03/20 04:38:29;;;;;;;9.32;6.05;;;;;;;7.94;100.00;101851.75;5116456;28;20253;-38
2024/03/20 04:40:54;;;;;;;8.65;6.38;;;;;;;8.00;100.00;101844.75;5116407;28;20482;-39
2024/03/20 04:43:20;;;;;;;10.07;6.45;;;;;;;7.96;100.00;101851.56;5116644;28;20023;-39
2024/03/20 04:45:45;;;;;;;8.53;6.57;;;;;;;7.92;100.00;101850.28;5116860;28;20107;-39
2024/03/20 04:48:10;;;;;;;7.97;6.37;;;;;;;7.94;100.00;101851.75;5116038;28;20165;-39
2024/03/20 04:50:36;;;;;;;10.23;6.67;;;;;;;7.98;100.00;101854.91;5116351;27;20542;-39
2024/03/20 04:53:01;;;;;;;8.97;6.80;;;;;;;7.90;100.00;101845.06;5115538;28;20119;-39
2024/03/20 04:55:26;;;;;;;8.90;6.27;;;;;;;7.94;100.00;101856.31;5115754;28;20128;-39
2024/03/20 04:57:52;;;;;;;7.60;5.60;;;;;;;7.96;100.00;101847.03;5115967;28;20055;-39
2024/03/20 05:00:17;;;;;;;7.87;5.80;;;;;;;8.06;100.00;101853.97;5115875;28;20059;-39
2024/03/20 05:02:43;;;;;;;6.00;5.40;;;;;;;8.07;100.00;101850.25;5115750;28;20108;-39
2024/03/20 05:05:11;;;;;;;8.63;6.87;;;;;;;7.99;100.00;101854.72;5116329;28;20039;-39
2024/03/20 05:07:37;;;;;;;9.65;6.40;;;;;;;8.06;100.00;101853.97;5115391;28;20024;-39
2024/03/20 05:10:04;;;;;;;8.40;6.20;;;;;;;8.13;100.00;101853.00;5116466;28;20034;-39
2024/03/20 05:12:30;;;;;;;9.50;7.10;;;;;;;8.08;100.00;101851.91;5115582;28;20035;-39
2024/03/20 05:14:55;;;;;;;9.15;7.05;;;;;;;8.08;100.00;101846.53;5115805;28;20384;-39
2024/03/20 05:17:20;;;;;;;7.63;6.68;;;;;;;8.15;100.00;101847.41;5116233;28;20404;-39
2024/03/20 05:19:46;;;;;;;10.13;6.07;;;;;;;8.14;100.00;101838.50;5116363;27;20032;-40
2024/03/20 05:22:11;;;;;;;8.17;7.30;;;;;;;8.10;100.00;101837.25;5115430;27;20097;-39
2024/03/20 05:24:36;;;;;;;8.23;6.27;;;;;;;8.20;100.00;101850.41;5115742;28;20381;-39
2024/03/20 05:27:02;;;;;;;7.40;6.03;;;;;;;8.18;100.00;101841.66;5115547;28;20445;-39
2024/03/20 05:29:27;;;;;;;11.57;7.05;;;;;;;8.11;100.00;101838.06;5115309;28;20468;-39
2024/03/20 05:31:52;;;;;;;7.33;6.50;;;;;;;8.13;100.00;101842.22;5115185;28;20030;-39
2024/03/20 05:34:18;;;;;;;7.03;6.07;;;;;;;8.17;100.00;101846.22;5115967;28;20106;-38
2024/03/20 05:36:43;;;;;;;6.17;5.50;;;;;;;8.15;100.00;101845.59;5114785;27;20073;-38
2024/03/20 05:39:11;;;;;;;9.13;6.80;;;;;;;8.03;100.00;101839.00;5114840;28;20250;-38
2024/03/20 05:41:37;;;;;;;9.75;7.47;;;;;;;8.04;100.00;101856.00;5114983;28;20080;-39
2024/03/20 05:44:03;;;;;;;8.10;6.65;;;;;;;8.03;100.00;101849.78;5115519;28;20028;-39
2024/03/20 05:46:28;;;;;;;7.30;6.18;;;;;;;8.00;100.00;101848.31;5114883;28;20032;-39
2024/03/20 05:48:56;;;;;;;11.57;6.90;;;;;;;7.91;100.00;101841.38;5115102;28;20513;-38
2024/03/20 05:51:21;;;;;;;10.38;7.00;;;;;;;7.85;100.00;101860.13;5113539;28;20057;-39
2024/03/20 05:53:46;;;;;;;9.30;7.25;;;;;;;7.91;100.00;101859.38;5114518;28;20054;-38
2024/03/20 05:56:12;;;;;;;7.87;6.80;;;;;;;7.82;100.00;101857.81;5114377;28;20032;-39
2024/03/20 05:58:39;;;;;;;12.40;7.27;;;;;;;7.79;100.00;101863.56;5114426;28;20059;-39
2024/03/20 06:01:05;;;;;;;10.13;7.47;;;;;;;7.75;100.00;101860.41;5114313;28;20463;-39
2024/03/20 06:03:30;;;;;;;8.32;6.35;;;;;;;7.83;100.00;101860.31;5114432;28;20066;-39
2024/03/20 06:05:56;;;;;;;8.47;6.50;;;;;;;7.82;100.00;101869.44;5115382;28;20038;-39
2024/03/20 06:08:21;;;;;;;7.90;6.63;;;;;;;7.77;100.00;101860.25;5114490;28;20020;-39
2024/03/20 06:10:47;;;;;;;10.55;7.53;;;;;;;7.78;100.00;101865.44;5114772;28;20023;-39
2024/03/20 06:13:12;;;;;;;9.07;7.57;;;;;;;7.84;100.00;101871.94;5114982;28;20512;-39
2024/03/20 06:15:37;;;;;;;10.00;7.30;;;;;;;7.84;100.00;101871.94;5114582;28;20026;-39
2024/03/20 06:18:03;;;;;;;8.30;6.60;;;;;;;7.80;100.00;101865.22;5114439;28;20081;-39
2024/03/20 06:20:28;;;;;;;8.32;6.90;;;;;;;7.75;100.00;101869.31;5114828;28;20032;-39
2024/03/20 06:22:54;;;;;;;11.07;6.93;;;;;;;7.78;100.00;101868.13;5114456;28;20219;-39
2024/03/20 06:25:19;;;;;;;8.60;6.53;;;;;;;7.86;100.00;101867.19;5115090;28;20032;-39
2024/03/20 06:27:45;;;;;;;11.57;7.50;;;;;;;7.90;100.00;101872.00;5114162;28;20141;-39
2024/03/20 06:30:15;;;;;;;11.90;6.63;;;;;;;7.95;100.00;101876.81;5114462;28;20032;-39
2024/03/20 06:32:46;;;;;;;14.50;8.02;;;;;;;7.95;100.00;101874.13;5114705;28;20019;-39
2024/03/20 06:35:13;;;;;;;11.02;7.97;;;;;;;7.91;100.00;101870.16;5114026;28;20023;-39
2024/03/20 06:37:38;;;;;;;;;;;;;;;8.12;100.00;101872.91;5114391;28;20032;-39
2024/03/20 06:40:07;;;;;;;9.80;6.85;;;;;;;7.99;100.00;101873.56;5114105;28;19908;-39
2024/03/20 06:42:33;;;;;;;8.18;7.00;;;;;;;8.08;100.00;101876.16;5114200;28;20028;-39
2024/03/20 06:44:58;;;;;;;8.17;6.37;;;;;;;8.13;100.00;101879.13;5114097;28;20483;-39
2024/03/20 06:47:25;;;;;;;8.88;7.50;;;;;;;8.08;100.00;101884.25;5113637;28;20027;-38
2024/03/20 06:49:50;;;;;;;8.13;6.75;;;;;;;8.19;100.00;101887.25;5113667;28;20031;-38
2024/03/20 06:52:16;;;;;;;8.50;7.20;;;;;;;8.19;100.00;101875.66;5113892;28;20103;-39
2024/03/20 06:54:44;;;;;;;10.57;7.63;;;;;;;8.27;100.00;101889.03;5114324;28;20047;-39
2024/03/20 06:57:11;;;;;;;13.75;8.30;;;;;;;8.26;100.00;101885.50;5113825;28;20491;-39
2024/03/20 06:59:45;;;;;;;10.02;7.70;;;;;;;8.38;100.00;101896.63;5113819;28;20019;-39
2024/03/20 07:02:11;;;;;;;9.23;7.78;;;;;;;8.39;100.00;101903.69;5114690;28;20044;-38
2024/03/20 07:04:40;;;;;;;10.15;7.85;;;;;;;8.40;100.00;101891.91;5113901;28;20050;-40
2024/03/20 07:07:07;;;;;;;9.07;7.15;;;;;;;8.50;100.00;101900.50;5113401;28;20548;-39
2024/03/20 07:09:34;;;;;;;11.43;7.38;;;;;;;8.58;100.00;101904.09;5114205;28;20110;-39
2024/03/20 07:12:00;;;;;;;7.53;6.63;;;;;;;8.57;100.00;101888.94;5113931;28;20028;-38
2024/03/20 07:14:28;;;;;;;10.48;7.93;;;;;;;8.73;100.00;101900.28;5114206;28;20030;-38
2024/03/20 07:16:54;;;;;;;13.18;9.93;;;;;;;8.70;100.00;101886.38;5116301;28;20023;-39
2024/03/20 07:19:19;;;;;;;12.32;9.65;;;;;;;8.91;100.00;101886.34;5117505;28;20034;-39
2024/03/20 07:21:45;;;;;;;13.68;9.98;;;;;;;9.01;100.00;101902.22;5117711;28;20110;-39
2024/03/20 07:24:10;;;;;;;15.07;10.87;;;;;;;9.05;100.00;101884.63;5118264;28;20067;-38
2024/03/20 07:26:37;;;;;;;13.65;10.27;;;;;;;9.18;100.00;101897.38;5117324;28;20332;-39
2024/03/20 07:29:10;;;;;;;12.07;10.73;;;;;;;9.20;100.00;101889.91;5118464;28;20031;-39
2024/03/20 07:31:38;;;;;;;16.27;11.13;;;;;;;9.24;100.00;101886.63;5117793;28;20122;-39
2024/03/20 07:34:03;;;;;;;13.65;10.73;;;;;;;9.37;100.00;101898.53;5117513;27;20110;-39
2024/03/20 07:36:29;;;;;;;14.77;10.95;;;;;;;9.48;100.00;101893.44;5117498;27;20115;-39
2024/03/20 07:38:55;;;;;;;13.80;11.80;;;;;;;9.58;100.00;101895.78;5117443;28;20464;-38
2024/03/20 07:41:24;;;;;;;16.10;11.52;;;;;;;9.66;100.00;101897.47;5117371;27;20396;-39
2024/03/20 07:43:49;;;;;;;12.85;11.48;;;;;;;9.72;100.00;101902.94;5117008;28;20118;-39
2024/03/20 07:46:15;;;;;;;16.52;12.45;;;;;;;9.74;100.00;101890.03;5117036;28;20070;-39
2024/03/20 07:48:45;;;;;;;14.00;11.75;;;;;;;9.77;100.00;101896.94;5117601;28;20024;-39
2024/03/20 07:51:10;;;;;;;17.80;12.60;;;;;;;9.84;100.00;101900.47;5117184;28;20109;-39
2024/03/20 07:53:35;;;;;;;17.45;12.60;;;;;;;9.91;100.00;101901.38;5116897;28;20483;-39
2024/03/20 07:56:03;;;;;;;19.07;13.70;;;;;;;9.97;100.00;101905.97;5117044;28;20038;-39
2024/03/20 07:58:28;;;;;;;16.45;12.93;;;;;;;10.04;100.00;101903.28;5117933;28;20020;-39
2024/03/20 08:00:56;;;;;;;17.75;13.25;;;;;;;10.15;100.00;101904.56;5117012;28;20028;-39
2024/03/20 08:03:22;;;;;;;17.83;12.63;;;;;;;10.27;100.00;101919.19;5116636;28;20028;-39
2024/03/20 08:05:47;;;;;;;18.43;12.27;;;;;;;10.36;100.00;101915.28;5116658;28;20032;-39
2024/03/20 08:08:12;;;;;;;16.10;11.53;;;;;;;10.43;100.00;101913.41;5117216;28;20246;-40
2024/03/20 08:10:38;;;;;;;16.95;11.07;;;;;;;10.47;100.00;101914.69;5117109;28;20059;-40
2024/03/20 08:13:03;;;;;;;16.97;11.70;;;;;;;10.51;100.00;101915.94;5117061;28;20015;-40
2024/03/20 08:15:29;;;;;;;15.23;11.50;;;;;;;10.53;100.00;101908.44;5116943;28;20027;-40
2024/03/20 08:17:54;;;;;;;15.57;11.87;;;;;;;10.62;100.00;101910.97;5117003;28;20416;-40
2024/03/20 08:20:19;;;;;;;15.13;11.93;;;;;;;10.76;100.00;101924.31;5117425;28;20315;-40
2024/03/20 08:22:45;;;;;;;13.20;11.57;;;;;;;10.88;100.00;101921.81;5116533;28;20020;-39
2024/03/20 08:25:10;;;;;;;16.42;11.50;;;;;;;10.91;100.00;101924.13;5116845;28;20293;-40
2024/03/20 08:27:36;;;;;;;13.45;11.38;;;;;;;11.01;100.00;101923.72;5116549;28;20525;-40
2024/03/20 08:30:04;;;;;;;18.17;12.85;;;;;;;11.12;100.00;101928.50;5116739;28;20170;-40
2024/03/20 08:32:30;;;;;;;14.82;12.73;;;;;;;11.20;100.00;101924.75;5116635;27;20019;-40
2024/03/20 08:34:56;;;;;;;18.77;14.40;;;;;;;11.28;100.00;101922.69;5116564;28;20055;-39
2024/03/20 08:37:22;;;;;;;17.33;13.65;;;;;;;11.35;100.00;101923.50;5116458;28;20478;-40
2024/03/20 08:39:47;;;;;;;20.88;14.77;;;;;;;11.41;100.00;101908.28;5117124;28;20091;-40
2024/03/20 08:42:13;;;;;;;17.03;14.80;;;;;;;11.57;100.00;101925.97;5116406;28;20047;-40
2024/03/20 08:44:39;;;;;;;19.00;14.93;;;;;;;11.67;100.00;101928.25;5116212;28;20562;-39
2024/03/20 08:47:04;;;;;;;;;;;;;;;11.87;100.00;101925.53;5116649;28;20532;-39
2024/03/20 08:49:37;;;;;;;18.30;16.40;;;;;;;11.88;100.00;101930.72;5116809;28;19912;-39
2024/03/20 08:52:09;;;;;;;17.40;15.48;;;;;;;11.96;100.00;101935.09;5116395;28;20023;-40
2024/03/20 08:54:34;;;;;;;19.92;16.85;;;;;;;12.05;100.00;101936.50;5116230;28;20066;-39
2024/03/20 08:57:07;;;;;;;20.60;18.55;;;;;;;12.13;100.00;101930.00;5116457;28;20106;-40
2024/03/20 08:59:33;;;;;;;20.80;18.77;;;;;;;12.13;100.00;101935.44;5116414;28;20081;-40
2024/03/20 09:01:59;;;;;;;23.08;20.10;;;;;;;12.21;100.00;101932.50;5115844;28;20451;-39
2024/03/20 09:04:24;;;;;;;20.13;17.85;;;;;;;12.24;100.00;101929.31;5115504;28;20028;-39
2024/03/20 09:06:49;;;;;;;21.52;19.17;;;;;;;12.33;100.00;101930.75;5115454;28;20036;-39
2024/03/20 09:09:15;;;;;;;21.95;18.85;;;;;;;12.39;100.00;101921.75;5115712;28;20051;-39
2024/03/20 09:11:41;;;;;;;19.90;17.88;;;;;;;12.45;100.00;101926.31;5115874;28;20490;-39
2024/03/20 09:14:07;;;;;;;20.38;18.10;;;;;;;12.52;100.00;101932.53;5115127;28;20448;-39
2024/03/20 09:16:32;;;;;;;21.63;19.45;;;;;;;12.61;100.00;101923.09;5115199;28;20468;-39
2024/03/20 09:18:58;;;;;;;20.17;18.17;;;;;;;12.68;100.00;101923.03;5115263;28;20149;-39
2024/03/20 09:21:23;;;;;;;20.10;18.17;;;;;;;12.79;100.00;101925.06;5115454;28;20115;-39
2024/03/20 09:23:48;;;;;;;20.13;17.90;;;;;;;12.83;100.00;101912.72;5115748;28;20062;-39
2024/03/20 09:26:14;;;;;;;19.73;17.63;;;;;;;12.91;100.00;101916.22;5116122;28;20269;-40
2024/03/20 09:28:39;;;;;;;19.17;17.38;;;;;;;12.91;100.00;101906.19;5115280;28;20020;-40
2024/03/20 09:31:04;;;;;;;19.08;16.67;;;;;;;12.99;100.00;101905.91;5115302;28;20035;-40
2024/03/20 09:33:30;;;;;;;19.15;17.23;;;;;;;13.14;100.00;101917.28;5115170;28;20039;-39
2024/03/20 09:35:57;;;;;;;18.63;16.45;;;;;;;13.17;100.00;101909.72;5115013;28;20110;-40
2024/03/20 09:38:23;;;;;;;18.17;16.30;;;;;;;13.21;100.00;101910.94;5114818;28;20046;-39
2024/03/20 09:40:48;;;;;;;;;;;;;;;13.46;100.00;101909.06;5115482;28;20376;-39
2024/03/20 09:43:14;;;;;;;18.27;16.27;;;;;;;13.44;100.00;101913.06;5115012;28;19942;-39
2024/03/20 09:45:40;;;;;;;16.38;14.77;;;;;;;13.55;100.00;101906.88;5115216;28;20345;-39
2024/03/20 09:48:08;;;;;;;18.27;16.38;;;;;;;13.57;100.00;101894.75;5114867;28;20024;-39
2024/03/20 09:50:36;;;;;;;16.88;15.07;;;;;;;13.77;100.00;101910.00;5115631;28;20032;-39
2024/03/20 09:53:05;;;;;;;15.82;14.13;;;;;;;13.70;100.00;101910.06;5114784;28;20432;-39
2024/03/20 09:55:34;;;;;;;16.50;14.57;;;;;;;13.76;100.00;101902.88;5114539;28;20051;-39
2024/03/20 09:58:00;;;;;;;16.27;14.60;;;;;;;13.82;100.00;101902.00;5114706;28;20058;-39
2024/03/20 10:00:27;;;;;;;16.52;14.90;;;;;;;13.89;100.00;101897.31;5115263;28;20051;-40
2024/03/20 10:02:53;;;;;;;15.68;14.18;;;;;;;14.02;100.00;101907.22;5114288;28;20031;-40
2024/03/20 10:05:19;;;;;;;15.65;14.18;;;;;;;14.01;100.00;101903.66;5115421;28;20028;-39
2024/03/20 10:07:47;;;;;;;16.27;14.68;;;;;;;13.86;100.00;101895.88;5114520;28;20035;-39
2024/03/20 10:10:15;;;;;;;16.27;14.60;;;;;;;13.99;100.00;101897.59;5114777;28;20024;-39
2024/03/20 10:12:46;;;;;;;16.88;14.68;;;;;;;14.07;100.00;101896.47;5114188;28;20032;-38
2024/03/20 10:15:12;;;;;;;15.27;13.80;;;;;;;14.16;100.00;101893.22;5115132;28;20024;-39
2024/03/20 10:17:41;;;;;;;;;;;;;;;14.33;100.00;101889.84;5114953;28;20027;-39
2024/03/20 10:20:19;;;;;;;15.20;13.70;;;;;;;14.41;100.00;101894.97;5114136;28;19933;-39
2024/03/20 10:22:45;;;;;;;16.20;14.05;;;;;;;14.42;100.00;101881.13;5113915;28;20396;-39
2024/03/20 10:25:18;;;;;;;17.35;14.13;;;;;;;14.51;100.00;101881.66;5115049;28;20122;-39
2024/03/20 10:27:49;;;;;;;14.52;12.90;;;;;;;14.56;100.00;101880.97;5115027;28;20391;-39
2024/03/20 10:30:19;;;;;;;15.25;12.55;;;;;;;14.79;100.00;101882.94;5114980;28;20120;-39
2024/03/20 10:32:50;;;;;;;16.70;12.65;;;;;;;14.97;100.00;101879.25;5114138;28;20425;-39
2024/03/20 10:35:20;;;;;;;15.02;12.70;;;;;;;15.17;100.00;101877.84;5114286;28;20375;-39
2024/03/20 10:37:47;;;;;;;12.85;11.38;;;;;;;15.17;100.00;101871.56;5114046;28;20024;-39
2024/03/20 10:40:22;;;;;;;14.32;12.80;;;;;;;15.41;100.00;101877.84;5114060;28;20024;-39
2024/03/20 10:42:50;;;;;;;14.15;12.75;;;;;;;15.39;100.00;101874.56;5114526;28;20371;-39
2024/03/20 10:45:17;;;;;;;14.70;13.27;;;;;;;15.54;100.00;101883.06;5114354;27;20084;-39
2024/03/20 10:47:45;;;;;;;15.13;12.38;;;;;;;15.62;100.00;101874.53;5113644;28;20023;-39
2024/03/20 10:50:20;;;;;;;12.73;11.45;;;;;;;15.72;100.00;101868.50;5114285;28;20377;-40
2024/03/20 10:52:48;;;;;;;16.70;12.17;;;;;;;15.89;100.00;101876.75;5114429;28;20024;-40
2024/03/20 10:55:15;;;;;;;11.98;10.70;;;;;;;15.96;100.00;101874.72;5114274;28;20047;-40
2024/03/20 10:57:41;;;;;;;11.35;10.13;;;;;;;15.80;100.00;101870.00;5113528;28;20107;-40
2024/03/20 11:00:16;;;;;;;11.48;10.32;;;;;;;15.94;100.00;101872.22;5114493;28;20444;-40
2024/03/20 11:02:44;;;;;;;12.83;10.57;;;;;;;16.00;100.00;101875.03;5114156;28;20059;-40
2024/03/20 11:05:40;;;;;;;11.13;10.13;;;;;;;16.15;100.00;101880.81;5113725;28;20322;-40
2024/03/20 11:08:09;;;;;;;12.93;10.38;;;;;;;16.26;100.00;101879.94;5113690;28;20028;-40
2024/03/20 11:10:35;;;;;;;10.48;9.30;;;;;;;16.37;100.00;101875.50;5114264;28;20031;-40
2024/03/20 11:13:02;;;;;;;11.10;8.50;;;;;;;16.43;100.00;101880.81;5113430;28;20576;-40